Time;durP1;ratioP1;P1;durP2;ratioP2;P2;SDS_P1;SDS_P2;PMS_P1;PMS_P2;Temp;Humidity;BMP_temperature;BMP_pressure;BME280_temperature;BME280_humidity;BME280_pressure;Samples;Min_cycle;Max_cycle;Signal;HPM_P1;HPM_P2
2021/08/02 00:00:48;;;;;;;8.40;4.80;;;;;;;18.86;73.51;97843.50;125550;1096;103096;-73
2021/08/02 00:03:31;;;;;;;12.63;4.63;;;;;;;18.86;73.41;97843.50;125662;1096;102917;-72
2021/08/02 00:06:02;;;;;;;9.20;4.87;;;;;;;18.86;73.50;97832.73;125679;1096;102959;-73
2021/08/02 00:09:05;;;;;;;10.73;4.73;;;;;;;18.84;73.45;97843.69;125785;1095;102997;-74
2021/08/02 00:11:44;;;;;;;13.87;4.73;;;;;;;18.85;73.20;97839.14;125688;1095;103371;-74
2021/08/02 00:14:17;;;;;;;9.33;4.50;;;;;;;18.83;73.39;97844.70;125764;1094;103125;-74
2021/08/02 00:16:45;;;;;;;10.73;4.58;;;;;;;18.80;73.47;97850.48;125641;1095;102910;-74
2021/08/02 00:19:14;;;;;;;8.00;4.10;;;;;;;18.79;73.66;97848.81;125782;1095;103192;-74
2021/08/02 00:21:46;;;;;;;10.67;4.17;;;;;;;18.75;73.28;97856.47;125656;1096;103087;-73
2021/08/02 00:24:16;;;;;;;9.03;4.00;;;;;;;18.72;73.72;97870.32;125795;1096;102939;-74
2021/08/02 00:26:46;;;;;;;9.57;4.27;;;;;;;18.70;73.39;97872.38;125674;1095;103060;-75
2021/08/02 00:29:16;;;;;;;11.83;4.00;;;;;;;18.70;73.56;97861.59;125643;1096;103473;-74
2021/08/02 00:31:44;;;;;;;7.77;3.57;;;;;;;18.69;73.39;97862.63;125706;1094;102980;-73
2021/08/02 00:34:13;;;;;;;9.47;3.90;;;;;;;18.64;73.70;97862.37;125671;1093;102951;-74
2021/08/02 00:36:47;;;;;;;9.60;3.97;;;;;;;18.62;73.81;97875.19;125696;1093;102997;-73
2021/08/02 00:39:52;;;;;;;8.90;3.40;;;;;;;18.60;73.49;97877.23;125688;1096;103012;-73
2021/08/02 00:42:43;;;;;;;7.45;4.05;;;;;;;18.57;73.68;97880.31;125667;1094;103004;-73
2021/08/02 00:45:20;;;;;;;7.67;4.23;;;;;;;18.55;73.57;97893.14;125674;1095;102917;-74
2021/08/02 00:48:04;;;;;;;10.00;4.13;;;;;;;18.53;73.39;97892.52;125697;1093;103070;-74
2021/08/02 00:50:44;;;;;;;9.10;3.80;;;;;;;18.48;73.52;97882.31;125707;1096;102975;-73
2021/08/02 00:53:19;;;;;;;8.30;4.30;;;;;;;18.44;73.48;97894.48;125688;1094;103013;-74
2021/08/02 00:55:52;;;;;;;7.67;4.70;;;;;;;18.40;73.70;97904.81;125629;1094;103175;-73
2021/08/02 00:58:25;;;;;;;9.40;4.47;;;;;;;18.36;73.53;97910.75;125711;1096;102944;-74
2021/08/02 01:00:57;;;;;;;9.77;4.60;;;;;;;18.35;74.05;97912.63;125656;1096;103047;-73
2021/08/02 01:03:31;;;;;;;6.40;3.70;;;;;;;18.33;73.51;97919.23;125723;1096;103047;-72
2021/08/02 01:06:01;;;;;;;11.67;4.13;;;;;;;18.22;73.64;97928.61;125760;1095;101846;-72
2021/08/02 01:08:37;;;;;;;6.67;3.10;;;;;;;18.13;73.61;97922.52;125811;1095;102997;-72
2021/08/02 01:11:12;;;;;;;4.27;2.47;;;;;;;18.04;73.57;97932.56;125823;1092;103063;-74
2021/08/02 01:13:44;;;;;;;4.07;2.33;;;;;;;17.96;73.45;97938.82;125731;1094;102939;-74
2021/08/02 01:16:12;;;;;;;4.73;2.40;;;;;;;17.88;73.93;97928.19;125774;1096;103084;-74
2021/08/02 01:18:45;;;;;;;6.00;2.60;;;;;;;17.78;73.84;97931.13;125714;1095;103041;-74
2021/08/02 01:21:19;;;;;;;3.90;2.30;;;;;;;17.73;74.01;97932.72;125777;1095;103057;-73
2021/08/02 01:23:51;;;;;;;4.73;2.40;;;;;;;17.71;73.81;97940.99;125671;1095;103064;-74
2021/08/02 01:26:44;;;;;;;4.83;2.47;;;;;;;17.68;73.99;97938.67;125645;1095;103084;-73
2021/08/02 01:29:51;;;;;;;3.80;2.50;;;;;;;17.65;73.65;97945.23;125804;1094;103518;-74
2021/08/02 01:32:23;;;;;;;5.83;2.17;;;;;;;17.63;73.92;97941.89;125650;1095;102912;-74
2021/08/02 01:34:51;;;;;;;6.13;2.30;;;;;;;17.61;73.87;97937.73;125703;1095;103159;-75
2021/08/02 01:37:20;;;;;;;3.25;2.30;;;;;;;17.58;73.89;97941.61;125827;1095;102919;-74
2021/08/02 01:39:56;;;;;;;3.57;2.30;;;;;;;17.52;73.73;97948.57;125673;1096;103009;-74
2021/08/02 01:42:24;;;;;;;6.23;2.30;;;;;;;17.50;74.17;97939.85;125773;1095;102996;-74
2021/08/02 01:44:52;;;;;;;7.17;2.70;;;;;;;17.48;73.69;97946.45;125686;1096;102937;-73
2021/08/02 01:47:42;;;;;;;5.03;2.67;;;;;;;17.43;73.60;97946.16;125651;1094;103010;-75
2021/08/02 01:50:36;;;;;;;8.27;3.00;;;;;;;17.34;73.90;97954.30;125677;1095;103179;-75
2021/08/02 01:53:12;;;;;;;5.03;2.60;;;;;;;17.26;74.23;97960.59;125744;1093;102936;-74
2021/08/02 01:55:52;;;;;;;4.63;2.77;;;;;;;17.24;73.98;97970.69;125683;1094;102998;-75
2021/08/02 01:58:20;;;;;;;4.83;2.80;;;;;;;17.22;73.99;97974.55;125723;1094;102983;-73
2021/08/02 02:00:51;;;;;;;5.17;3.27;;;;;;;17.19;74.27;97974.91;125802;1093;103007;-73
2021/08/02 02:03:27;;;;;;;7.80;3.33;;;;;;;17.16;74.18;97965.38;125722;1093;103007;-73
2021/08/02 02:06:08;;;;;;;7.00;2.97;;;;;;;17.11;73.96;97957.87;125793;1093;103014;-73
2021/08/02 02:08:42;;;;;;;5.53;2.93;;;;;;;17.08;74.22;97966.28;125702;1096;102948;-75
2021/08/02 02:11:13;;;;;;;5.60;3.43;;;;;;;17.03;74.37;97965.98;125711;1096;102907;-73
2021/08/02 02:13:47;;;;;;;9.50;4.23;;;;;;;17.00;74.12;97982.47;125629;1096;103051;-75
2021/08/02 02:16:20;;;;;;;5.40;3.80;;;;;;;16.92;74.30;97983.31;125678;1095;103007;-74
2021/08/02 02:18:54;;;;;;;9.95;4.73;;;;;;;16.84;74.14;97986.08;125656;1095;102940;-74
2021/08/02 02:21:29;;;;;;;9.80;4.70;;;;;;;16.78;74.23;97982.23;125712;1096;103001;-74
2021/08/02 02:24:01;;;;;;;13.43;5.00;;;;;;;16.72;74.12;97980.26;125694;1093;103044;-74
2021/08/02 02:26:32;;;;;;;13.57;5.57;;;;;;;16.66;74.31;97989.05;125648;1095;103042;-74
2021/08/02 02:29:10;;;;;;;8.67;5.20;;;;;;;16.63;74.12;97982.17;125822;1095;102938;-74
2021/08/02 02:31:46;;;;;;;10.10;5.27;;;;;;;16.59;74.08;97993.45;125709;1096;102997;-74
2021/08/02 02:34:18;;;;;;;8.53;5.10;;;;;;;16.51;74.30;97992.48;125851;1093;103480;-72
2021/08/02 02:36:50;;;;;;;9.47;4.13;;;;;;;16.48;74.33;98002.74;125727;1095;102987;-74
2021/08/02 02:39:24;;;;;;;9.33;4.43;;;;;;;16.42;74.31;98006.95;125714;1093;103101;-74
2021/08/02 02:41:57;;;;;;;10.13;3.98;;;;;;;16.41;74.56;97996.41;125690;1093;102938;-75
2021/08/02 02:44:29;;;;;;;6.07;3.87;;;;;;;16.37;74.31;97996.75;125713;1093;102968;-73
2021/08/02 02:46:59;;;;;;;9.43;3.90;;;;;;;16.37;74.48;97996.75;125676;1094;103157;-75
2021/08/02 02:49:30;;;;;;;6.90;3.90;;;;;;;16.36;74.29;98000.44;125748;1091;103012;-73
2021/08/02 02:52:00;;;;;;;6.97;3.90;;;;;;;16.34;74.34;98005.15;125732;1093;103082;-73
2021/08/02 02:54:31;;;;;;;5.77;3.67;;;;;;;16.31;74.44;98013.55;125747;1093;102940;-72
2021/08/02 02:57:02;;;;;;;7.20;3.60;;;;;;;16.30;74.68;98005.69;125688;1092;102942;-73
2021/08/02 02:59:32;;;;;;;9.20;4.27;;;;;;;16.25;74.73;98011.55;125733;1093;103422;-73
2021/08/02 03:02:03;;;;;;;5.90;3.63;;;;;;;16.26;74.52;98009.72;125685;1093;102959;-72
2021/08/02 03:04:42;;;;;;;6.70;4.47;;;;;;;16.26;74.75;98012.41;125686;1092;102904;-74
2021/08/02 03:07:15;;;;;;;6.57;4.13;;;;;;;16.24;74.38;98015.25;125645;1093;103012;-74
2021/08/02 03:09:49;;;;;;;6.95;4.03;;;;;;;16.22;74.48;98015.44;125693;1093;103013;-75
2021/08/02 03:12:17;;;;;;;8.17;4.60;;;;;;;16.21;74.62;98027.17;125671;1093;102927;-74
2021/08/02 03:14:45;;;;;;;7.00;4.60;;;;;;;16.19;74.75;98031.88;125693;1093;102927;-73
2021/08/02 03:17:14;;;;;;;9.93;4.70;;;;;;;16.17;74.64;98041.09;125662;1096;102936;-73
2021/08/02 03:19:42;;;;;;;8.03;4.57;;;;;;;16.16;74.78;98042.95;125686;1096;102916;-74
2021/08/02 03:22:50;;;;;;;9.50;4.60;;;;;;;16.14;74.83;98042.28;125680;1092;103029;-74
2021/08/02 03:25:32;;;;;;;9.10;4.97;;;;;;;16.12;74.82;98057.72;125633;1093;103012;-73
2021/08/02 03:28:30;;;;;;;7.73;4.10;;;;;;;16.10;74.87;98057.05;125713;1096;103010;-73
2021/08/02 03:31:02;;;;;;;10.27;4.70;;;;;;;16.08;74.94;98059.06;125681;1093;103065;-74
2021/08/02 03:33:36;;;;;;;9.07;4.60;;;;;;;16.05;74.64;98075.50;125700;1093;102970;-74
2021/08/02 03:36:14;;;;;;;8.53;4.63;;;;;;;16.01;74.57;98072.33;125733;1094;102934;-73
2021/08/02 03:38:50;;;;;;;6.47;3.93;;;;;;;16.01;74.63;98071.48;125743;1095;103009;-73
2021/08/02 03:41:21;;;;;;;7.97;4.80;;;;;;;16.02;74.80;98082.05;125651;1096;103006;-74
2021/08/02 03:43:54;;;;;;;8.87;4.60;;;;;;;16.03;74.79;98085.56;125624;1093;103034;-73
2021/08/02 03:46:26;;;;;;;7.25;4.30;;;;;;;16.03;74.60;98086.41;125733;1093;102913;-73
2021/08/02 03:48:55;;;;;;;8.60;4.67;;;;;;;16.01;74.88;98096.47;125796;1093;102943;-75
2021/08/02 03:51:23;;;;;;;13.07;4.33;;;;;;;15.99;74.82;98095.80;125741;1092;102929;-73
2021/08/02 03:53:51;;;;;;;5.93;3.60;;;;;;;15.99;75.05;98101.17;125833;1093;103009;-73
2021/08/02 03:56:21;;;;;;;6.87;3.57;;;;;;;15.98;74.93;98102.17;125678;1092;103122;-73
2021/08/02 03:58:49;;;;;;;5.13;3.30;;;;;;;15.99;74.98;98113.72;125740;1093;102909;-74
2021/08/02 04:01:17;;;;;;;6.95;3.25;;;;;;;15.96;74.99;98108.70;125692;1092;102967;-73
2021/08/02 04:03:48;;;;;;;5.80;3.23;;;;;;;15.95;75.07;98110.56;125681;1093;102937;-76
2021/08/02 04:06:16;;;;;;;6.27;3.30;;;;;;;15.96;74.96;98109.55;125666;1096;102914;-75
2021/08/02 04:08:44;;;;;;;9.10;3.53;;;;;;;15.97;74.81;98121.95;125657;1093;102994;-73
2021/08/02 04:11:15;;;;;;;3.77;2.90;;;;;;;15.99;75.08;98133.35;125713;1095;103068;-77
2021/08/02 04:13:46;;;;;;;7.70;2.87;;;;;;;15.98;75.03;98128.14;125800;1094;102932;-77
2021/08/02 04:16:17;;;;;;;5.90;2.75;;;;;;;15.98;75.04;98141.55;125902;1095;102055;-74
2021/08/02 04:18:46;;;;;;;4.70;2.47;;;;;;;15.96;75.00;98156.97;125739;1092;103016;-77
2021/08/02 04:21:14;;;;;;;4.70;2.63;;;;;;;15.94;75.11;98154.47;125709;1093;103117;-77
2021/08/02 04:23:44;;;;;;;3.23;2.43;;;;;;;15.94;75.24;98167.88;125793;1092;103082;-76
2021/08/02 04:26:12;;;;;;;3.93;2.53;;;;;;;15.92;74.91;98172.58;126354;1093;103125;-75
2021/08/02 04:28:45;;;;;;;3.40;2.10;;;;;;;15.92;75.19;98177.94;125714;1093;102919;-78
2021/08/02 04:31:14;;;;;;;3.15;2.45;;;;;;;15.90;75.24;98183.45;125850;1093;102941;-72
2021/08/02 04:33:42;;;;;;;6.47;3.17;;;;;;;15.88;75.03;98193.53;125647;1095;103005;-72
2021/08/02 04:36:12;;;;;;;3.67;2.83;;;;;;;15.87;75.01;98196.38;125723;1093;103091;-73
2021/08/02 04:38:43;;;;;;;9.40;3.23;;;;;;;15.86;75.34;98202.70;125696;1094;103012;-73
2021/08/02 04:41:11;;;;;;;4.97;3.20;;;;;;;15.86;74.95;98202.70;125706;1094;102913;-72
2021/08/02 04:43:40;;;;;;;8.87;3.67;;;;;;;15.86;75.19;98217.00;125671;1095;103017;-74
2021/08/02 04:46:08;;;;;;;6.87;3.67;;;;;;;15.87;75.17;98220.50;125634;1092;103028;-73
2021/08/02 04:48:37;;;;;;;10.00;4.50;;;;;;;15.86;75.13;98221.48;125651;1093;103189;-72
2021/08/02 04:51:09;;;;;;;4.37;3.37;;;;;;;15.87;75.23;98223.19;125618;1093;103139;-71
2021/08/02 04:53:38;;;;;;;6.30;3.60;;;;;;;15.89;75.32;98234.58;125767;1094;102926;-73
2021/08/02 04:56:07;;;;;;;8.77;4.30;;;;;;;15.91;75.43;98237.94;125675;1096;103084;-71
2021/08/02 04:58:35;;;;;;;6.10;4.10;;;;;;;15.93;75.36;98244.80;125607;1093;103085;-72
2021/08/02 05:01:04;;;;;;;9.67;3.97;;;;;;;15.95;75.36;98257.20;125676;1092;102914;-74
2021/08/02 05:03:33;;;;;;;6.27;3.70;;;;;;;15.96;75.31;98251.69;125712;1093;102913;-71
2021/08/02 05:06:02;;;;;;;7.67;4.27;;;;;;;15.96;75.09;98259.73;125669;1095;102895;-72
2021/08/02 05:08:31;;;;;;;5.43;3.53;;;;;;;15.94;75.40;98264.43;125665;1093;102935;-72
2021/08/02 05:10:59;;;;;;;7.50;4.20;;;;;;;15.92;75.43;98269.12;125654;1093;103036;-71
2021/08/02 05:13:28;;;;;;;5.37;3.90;;;;;;;15.92;75.30;98277.16;125646;1093;103034;-73
2021/08/02 05:15:56;;;;;;;8.60;4.70;;;;;;;15.92;75.65;98275.30;125652;1092;102939;-73
2021/08/02 05:18:27;;;;;;;8.73;4.27;;;;;;;15.92;75.22;98279.84;125734;1093;103012;-72
2021/08/02 05:20:55;;;;;;;10.67;4.67;;;;;;;15.90;75.26;98284.53;125653;1093;103001;-71
2021/08/02 05:23:27;;;;;;;7.53;4.40;;;;;;;15.87;75.13;98279.50;125693;1092;102998;-70
2021/08/02 05:25:55;;;;;;;10.57;4.70;;;;;;;15.82;75.27;98290.70;125635;1092;102979;-71
2021/08/02 05:28:23;;;;;;;9.57;5.33;;;;;;;15.82;75.17;98287.16;125652;1093;102987;-71
2021/08/02 05:30:52;;;;;;;11.00;4.97;;;;;;;15.78;75.20;98297.39;125640;1094;102972;-72
2021/08/02 05:33:25;;;;;;;13.37;5.70;;;;;;;15.75;75.26;98295.86;125631;1093;103370;-73
2021/08/02 05:35:53;;;;;;;9.87;5.10;;;;;;;15.75;75.33;98303.08;125658;1093;103031;-72
2021/08/02 05:38:21;;;;;;;12.83;5.77;;;;;;;15.75;75.26;98300.39;125681;1093;103412;-73
2021/08/02 05:40:50;;;;;;;10.33;6.00;;;;;;;15.77;75.35;98309.11;125679;1093;102913;-74
2021/08/02 05:43:18;;;;;;;11.30;5.73;;;;;;;15.77;75.38;98312.63;125686;1093;103062;-74
2021/08/02 05:45:47;;;;;;;12.13;5.73;;;;;;;15.78;75.35;98300.07;125720;1093;103027;-73
2021/08/02 05:48:16;;;;;;;13.80;6.83;;;;;;;15.80;75.44;98307.94;125592;1093;103020;-73
2021/08/02 05:50:45;;;;;;;12.03;6.10;;;;;;;15.77;75.35;98315.30;125778;1093;103033;-74
2021/08/02 05:53:13;;;;;;;13.07;6.13;;;;;;;15.76;75.31;98305.58;125686;1092;103070;-73
2021/08/02 05:55:41;;;;;;;12.80;5.90;;;;;;;15.76;75.25;98312.80;125726;1092;103121;-72
2021/08/02 05:58:11;;;;;;;14.00;5.70;;;;;;;15.75;75.25;98303.91;125693;1093;103065;-72
2021/08/02 06:00:41;;;;;;;14.67;6.20;;;;;;;15.75;75.24;98316.48;125658;1093;102914;-73
2021/08/02 06:03:09;;;;;;;13.20;6.70;;;;;;;15.75;75.31;98319.16;125708;1093;103033;-72
2021/08/02 06:05:38;;;;;;;13.17;6.70;;;;;;;15.75;75.34;98322.67;125689;1093;102908;-73
2021/08/02 06:08:06;;;;;;;10.43;5.77;;;;;;;15.76;75.25;98337.75;125645;1093;102916;-72
2021/08/02 06:10:37;;;;;;;11.10;5.80;;;;;;;15.75;75.27;98329.89;125636;1092;103083;-75
2021/08/02 06:13:09;;;;;;;14.10;6.07;;;;;;;15.76;75.08;98323.52;125625;1095;102913;-73
2021/08/02 06:15:37;;;;;;;12.65;5.45;;;;;;;15.76;75.33;98336.93;125713;1093;102909;-73
2021/08/02 06:18:08;;;;;;;12.83;5.73;;;;;;;15.75;75.37;98341.44;125646;1095;102919;-73
2021/08/02 06:20:37;;;;;;;13.07;5.43;;;;;;;15.74;75.11;98339.75;125698;1093;101734;-72
2021/08/02 06:23:05;;;;;;;11.53;5.83;;;;;;;15.74;75.24;98342.44;125619;1093;103012;-74
2021/08/02 06:25:34;;;;;;;11.07;5.43;;;;;;;15.76;75.33;98337.75;125639;1093;103015;-73
2021/08/02 06:28:03;;;;;;;13.63;6.53;;;;;;;15.77;75.27;98350.16;125749;1093;102916;-73
2021/08/02 06:30:31;;;;;;;12.53;5.47;;;;;;;15.76;75.29;98347.66;125631;1094;102991;-72
2021/08/02 06:33:00;;;;;;;13.40;5.83;;;;;;;15.75;75.28;98349.48;125642;1095;103131;-76
2021/08/02 06:35:31;;;;;;;9.87;5.80;;;;;;;15.76;75.28;98361.88;125671;1093;102911;-74
2021/08/02 06:37:59;;;;;;;15.37;5.53;;;;;;;15.77;75.28;98355.52;125637;1091;103289;-74
2021/08/02 06:40:28;;;;;;;12.17;5.63;;;;;;;15.81;75.33;98357.88;125701;1093;103517;-73
2021/08/02 06:42:57;;;;;;;10.30;5.90;;;;;;;15.83;75.27;98361.23;125637;1095;102936;-73
2021/08/02 06:45:30;;;;;;;13.63;5.77;;;;;;;15.83;75.45;98359.41;125750;1093;103020;-73
2021/08/02 06:47:58;;;;;;;10.50;5.80;;;;;;;15.82;75.27;98360.41;125651;1092;102937;-74
2021/08/02 06:50:27;;;;;;;13.50;7.25;;;;;;;15.81;75.09;98355.20;125622;1092;103041;-86
2021/08/02 06:52:55;;;;;;;12.70;7.23;;;;;;;15.82;75.62;98359.56;125655;1093;102916;-77
2021/08/02 06:55:27;;;;;;;17.30;8.33;;;;;;;15.83;75.27;98369.28;125684;1096;103071;-78
2021/08/02 06:57:57;;;;;;;14.50;7.20;;;;;;;15.84;75.21;98362.91;125690;1093;103016;-78
2021/08/02 07:00:26;;;;;;;14.23;7.70;;;;;;;15.85;75.38;98376.18;125704;1093;102969;-78
2021/08/02 07:02:57;;;;;;;19.03;8.97;;;;;;;15.87;75.09;98381.40;125708;1093;103013;-79
2021/08/02 07:05:29;;;;;;;18.03;8.30;;;;;;;15.89;75.23;98379.39;125699;1095;103093;-79
2021/08/02 07:07:58;;;;;;;18.27;9.77;;;;;;;15.90;75.25;98376.53;125677;1093;103087;-77
2021/08/02 07:10:27;;;;;;;17.53;9.07;;;;;;;15.93;75.35;98383.44;125670;1094;103048;-78
2021/08/02 07:12:56;;;;;;;19.87;9.67;;;;;;;15.97;75.21;98383.94;125688;1095;102996;-78
2021/08/02 07:15:24;;;;;;;19.83;9.67;;;;;;;15.99;75.28;98388.15;125699;1093;103026;-78
2021/08/02 07:17:53;;;;;;;16.00;7.57;;;;;;;16.01;75.08;98404.92;125693;1092;102913;-79
2021/08/02 07:20:22;;;;;;;19.27;10.03;;;;;;;16.02;75.01;98395.88;125707;1094;102998;-78
2021/08/02 07:22:51;;;;;;;17.03;9.43;;;;;;;16.05;74.95;98408.96;125712;1093;102930;-78
2021/08/02 07:25:21;;;;;;;17.30;9.40;;;;;;;16.09;75.03;98411.32;125725;1093;102994;-79
2021/08/02 07:27:50;;;;;;;17.47;10.17;;;;;;;16.11;75.28;98415.50;125611;1093;103117;-79
2021/08/02 07:30:22;;;;;;;20.08;9.95;;;;;;;16.16;75.40;98418.54;125672;1093;102978;-81
2021/08/02 07:32:51;;;;;;;18.15;10.05;;;;;;;16.21;75.19;98426.09;125832;1093;102920;-78
2021/08/02 07:35:19;;;;;;;17.33;9.83;;;;;;;16.25;75.06;98429.30;125688;1093;103157;-78
2021/08/02 07:37:47;;;;;;;18.80;10.80;;;;;;;16.28;75.11;98429.80;125752;1094;103097;-78
2021/08/02 07:40:16;;;;;;;18.80;10.55;;;;;;;16.32;75.41;98425.78;125572;1096;102940;-79
2021/08/02 07:42:45;;;;;;;20.77;11.63;;;;;;;16.34;74.98;98431.83;125575;1093;102724;-78
2021/08/02 07:45:14;;;;;;;18.93;11.30;;;;;;;16.37;75.01;98433.33;125600;1093;102956;-77
2021/08/02 07:47:42;;;;;;;26.73;11.90;;;;;;;16.39;75.11;98439.38;125647;1093;102939;-79
2021/08/02 07:50:12;;;;;;;22.50;12.57;;;;;;;16.41;75.24;98445.42;125869;1093;102995;-79
2021/08/02 07:52:41;;;;;;;22.75;13.75;;;;;;;16.42;74.95;98439.05;125568;1096;103081;-79
2021/08/02 07:55:14;;;;;;;19.77;12.27;;;;;;;16.45;74.93;98451.31;125652;1093;103020;-79
2021/08/02 07:57:43;;;;;;;21.20;12.27;;;;;;;16.44;75.10;98458.52;125632;1093;102945;-79
2021/08/02 08:00:14;;;;;;;20.77;11.77;;;;;;;16.45;75.25;98454.00;125674;1093;103044;-80
2021/08/02 08:02:44;;;;;;;19.10;11.97;;;;;;;16.46;75.08;98455.69;125623;1094;102997;-79
2021/08/02 08:05:15;;;;;;;20.67;13.67;;;;;;;16.46;75.31;98458.37;125739;1093;103009;-79
2021/08/02 08:07:51;;;;;;;22.83;12.87;;;;;;;16.48;75.27;98464.41;125641;1093;103062;-79
2021/08/02 08:10:21;;;;;;;20.13;12.43;;;;;;;16.49;75.15;98472.28;125667;1093;102911;-79
2021/08/02 08:12:50;;;;;;;27.47;14.23;;;;;;;16.51;75.16;98477.47;125704;1093;102997;-77
2021/08/02 08:15:20;;;;;;;21.90;13.40;;;;;;;16.61;75.35;98471.98;125866;1093;103018;-81
2021/08/02 08:17:49;;;;;;;23.37;15.07;;;;;;;16.71;74.97;98485.25;125783;1096;103051;-83
2021/08/02 08:20:20;;;;;;;23.67;15.33;;;;;;;16.78;75.06;98483.58;125833;1093;102998;-83
2021/08/02 08:22:49;;;;;;;28.80;15.40;;;;;;;16.87;74.90;98481.73;125754;1093;102911;-81
2021/08/02 08:25:18;;;;;;;23.33;14.27;;;;;;;16.93;75.23;98487.27;125866;1093;103074;-80
2021/08/02 08:27:49;;;;;;;24.70;14.83;;;;;;;16.96;75.18;98481.59;125586;1096;103028;-80
2021/08/02 08:30:20;;;;;;;22.87;15.20;;;;;;;17.01;75.08;98475.74;125584;1093;103124;-81
2021/08/02 08:32:48;;;;;;;24.07;14.93;;;;;;;17.05;74.70;98478.92;125780;1092;103071;-80
2021/08/02 08:35:17;;;;;;;21.60;13.97;;;;;;;17.11;74.96;98492.55;125574;1094;103058;-80
2021/08/02 08:37:45;;;;;;;23.57;13.77;;;;;;;17.15;74.75;98482.28;125600;1093;102985;-81
2021/08/02 08:40:14;;;;;;;22.47;13.97;;;;;;;17.20;75.19;98493.38;125770;1093;102908;-81
2021/08/02 08:42:43;;;;;;;23.90;13.60;;;;;;;17.24;75.02;98496.55;125534;1093;103009;-85
2021/08/02 08:45:13;;;;;;;20.77;12.53;;;;;;;17.34;74.92;98490.99;125741;1097;103119;-76
2021/08/02 08:47:43;;;;;;;22.53;13.40;;;;;;;17.43;74.72;98503.42;125605;1094;102945;-76
2021/08/02 08:50:12;;;;;;;21.13;12.43;;;;;;;17.53;75.00;98504.09;125606;1093;102970;-83
2021/08/02 08:52:40;;;;;;;21.63;10.50;;;;;;;17.63;74.96;98495.00;125809;1093;101655;-80
2021/08/02 08:55:12;;;;;;;18.90;10.70;;;;;;;17.73;74.55;98497.50;125798;1093;103023;-83
2021/08/02 08:57:42;;;;;;;22.03;11.67;;;;;;;17.79;74.72;98494.95;125797;1095;102949;-84
2021/08/02 09:00:25;;;;;;;19.73;11.07;;;;;;;17.90;74.72;98509.05;125818;1092;102941;-82
2021/08/02 09:02:56;;;;;;;19.75;10.85;;;;;;;17.95;74.84;98503.98;125893;1093;102913;-81
2021/08/02 09:05:33;;;;;;;18.40;10.10;;;;;;;17.97;74.29;98505.48;125760;1093;102918;-82
2021/08/02 09:08:03;;;;;;;19.90;10.63;;;;;;;18.02;74.35;98509.54;125760;1094;102922;-80
2021/08/02 09:10:32;;;;;;;19.73;9.67;;;;;;;18.07;74.62;98505.34;125686;1093;103103;-75
2021/08/02 09:13:05;;;;;;;29.43;11.13;;;;;;;18.19;74.46;98510.31;125694;1093;103469;-75
2021/08/02 09:15:36;;;;;;;18.67;8.80;;;;;;;18.29;74.36;98517.19;125674;1095;102952;-75
2021/08/02 09:18:26;;;;;;;14.97;8.10;;;;;;;18.34;74.13;98516.66;125745;1093;102933;-75
2021/08/02 09:21:02;;;;;;;16.40;8.20;;;;;;;18.36;74.08;98521.84;125658;1093;103032;-72
2021/08/02 09:23:31;;;;;;;16.20;8.70;;;;;;;18.33;74.34;98514.97;125694;1091;103033;-73
2021/08/02 09:26:01;;;;;;;17.33;7.67;;;;;;;18.36;74.05;98520.02;125676;1093;103064;-73
2021/08/02 09:28:30;;;;;;;16.77;7.77;;;;;;;18.36;74.23;98520.02;125667;1096;103094;-72
2021/08/02 09:31:01;;;;;;;17.23;8.30;;;;;;;18.31;74.21;98522.39;125688;1093;103101;-73
2021/08/02 09:33:50;;;;;;;18.50;8.20;;;;;;;18.32;74.25;98524.06;125675;1093;103023;-72
2021/08/02 09:36:18;;;;;;;16.07;8.10;;;;;;;18.39;73.85;98519.66;125702;1092;102938;-72
2021/08/02 09:38:47;;;;;;;16.20;8.43;;;;;;;18.45;73.88;98518.11;125742;1092;103189;-73
2021/08/02 09:41:20;;;;;;;17.53;9.10;;;;;;;18.47;74.17;98529.55;125684;1093;102923;-74
2021/08/02 09:43:53;;;;;;;16.60;7.80;;;;;;;18.49;73.77;98527.52;125775;1093;102920;-76
2021/08/02 09:46:22;;;;;;;16.18;7.38;;;;;;;18.52;73.72;98524.47;125754;1092;102916;-73
2021/08/02 09:48:51;;;;;;;13.57;7.40;;;;;;;18.56;73.88;98524.95;125645;1093;103071;-76
2021/08/02 09:51:21;;;;;;;16.87;8.30;;;;;;;18.65;73.66;98523.89;125681;1093;102994;-74
2021/08/02 09:53:52;;;;;;;16.23;7.80;;;;;;;18.74;73.50;98522.83;125664;1095;102914;-73
2021/08/02 09:56:24;;;;;;;21.93;12.03;;;;;;;18.80;73.81;98520.45;125676;1095;103042;-73
2021/08/02 09:59:09;;;;;;;20.87;8.60;;;;;;;18.85;73.92;98526.14;125603;1095;103028;-73
2021/08/02 10:01:37;;;;;;;12.57;6.63;;;;;;;18.88;73.67;98517.70;125674;1093;102936;-75
2021/08/02 10:04:10;;;;;;;12.83;6.90;;;;;;;18.94;73.82;98516.14;125657;1093;103034;-73
2021/08/02 10:06:40;;;;;;;13.15;7.20;;;;;;;18.99;73.67;98522.69;125693;1093;103034;-73
2021/08/02 10:09:14;;;;;;;12.80;6.43;;;;;;;19.08;73.59;98522.63;125696;1093;102918;-75
2021/08/02 10:11:44;;;;;;;13.85;6.80;;;;;;;19.16;73.41;98530.66;125681;1093;103002;-74
2021/08/02 10:14:14;;;;;;;12.50;6.80;;;;;;;19.25;73.33;98520.64;125669;1093;102991;-73
2021/08/02 10:16:48;;;;;;;15.37;6.60;;;;;;;19.31;73.36;98536.95;125591;1093;102909;-73
2021/08/02 10:19:19;;;;;;;16.50;7.53;;;;;;;19.35;73.32;98529.33;125702;1093;102940;-75
2021/08/02 10:21:48;;;;;;;11.93;6.13;;;;;;;19.43;73.12;98526.56;125829;1092;103020;-76
2021/08/02 10:24:17;;;;;;;11.67;6.47;;;;;;;19.47;72.86;98527.88;125610;1093;103175;-74
2021/08/02 10:26:56;;;;;;;13.03;6.00;;;;;;;19.49;72.73;98531.23;125661;1091;103009;-74
2021/08/02 10:29:41;;;;;;;12.67;6.30;;;;;;;19.54;72.80;98535.25;125641;1092;102913;-73
2021/08/02 10:32:27;;;;;;;10.80;5.90;;;;;;;19.60;72.89;98540.73;125715;1093;102938;-72
2021/08/02 10:34:59;;;;;;;15.33;6.67;;;;;;;19.63;72.63;98543.07;125685;1093;103031;-73
2021/08/02 10:37:34;;;;;;;11.13;6.00;;;;;;;19.67;72.47;98545.41;125680;1093;102933;-73
2021/08/02 10:40:14;;;;;;;11.77;5.30;;;;;;;19.68;72.72;98556.00;125641;1092;103023;-73
2021/08/02 10:42:47;;;;;;;14.47;5.97;;;;;;;19.69;72.70;98548.77;125634;1092;102916;-78
2021/08/02 10:45:28;;;;;;;13.70;5.90;;;;;;;19.74;72.41;98551.75;125698;1093;103030;-79
2021/08/02 10:47:57;;;;;;;13.43;6.30;;;;;;;19.81;72.32;98554.55;125681;1095;103065;-74
2021/08/02 10:50:41;;;;;;;13.03;5.70;;;;;;;19.93;72.16;98545.02;125617;1092;102911;-76
2021/08/02 10:53:19;;;;;;;13.13;5.50;;;;;;;20.05;72.31;98540.80;125680;1094;103079;-74
2021/08/02 10:55:52;;;;;;;9.07;5.60;;;;;;;20.19;72.13;98544.52;125706;1093;103425;-73
2021/08/02 10:58:43;;;;;;;12.30;5.53;;;;;;;20.28;72.60;98542.59;125809;1096;103012;-72
2021/08/02 11:01:13;;;;;;;12.67;6.00;;;;;;;20.32;71.84;98537.63;125666;1093;102994;-76
2021/08/02 11:03:44;;;;;;;11.43;5.90;;;;;;;20.35;71.77;98548.06;125616;1093;104676;-73
2021/08/02 11:06:34;;;;;;;10.67;5.87;;;;;;;20.41;71.82;98536.52;125599;1093;103367;-75
2021/08/02 11:09:04;;;;;;;10.30;5.57;;;;;;;20.53;71.72;98539.56;125624;1093;102938;-74
2021/08/02 11:11:46;;;;;;;14.70;6.15;;;;;;;20.67;71.68;98535.14;125613;1093;102937;-73
2021/08/02 11:14:20;;;;;;;11.45;5.60;;;;;;;20.87;71.71;98527.29;125689;1093;103065;-74
2021/08/02 11:16:52;;;;;;;12.00;6.20;;;;;;;21.01;71.31;98549.89;125566;1093;103016;-74
2021/08/02 11:19:30;;;;;;;11.10;6.15;;;;;;;21.07;71.39;98537.48;125658;1093;103017;-74
2021/08/02 11:22:02;;;;;;;11.63;6.00;;;;;;;21.10;71.54;98535.22;125725;1094;103025;-85
2021/08/02 11:24:33;;;;;;;17.60;7.30;;;;;;;21.20;71.12;98534.06;125960;1093;102934;-77
2021/08/02 11:27:06;;;;;;;12.40;6.67;;;;;;;21.23;71.04;98530.98;126376;1093;102606;-86
2021/08/02 11:29:37;;;;;;;11.00;5.65;;;;;;;21.28;70.89;98539.35;125614;1093;103094;-78
2021/08/02 11:32:13;;;;;;;9.33;5.40;;;;;;;21.34;71.22;98538.58;125580;1093;103005;-76
2021/08/02 11:34:51;;;;;;;10.63;5.67;;;;;;;21.37;70.99;98535.48;125647;1093;103020;-78